Latest Coastal Weather Observations for Albany Airport

IDW60701

Issued at 6:42 am WST Friday 6 March 2015 (issued every 10 minutes, with the page automatically refreshed every 10 minutes)

About coastal observations | Map of coastal stations | Coastal observations for WA | Marine services | Other Formats
Station Details ID: 009999 Name: ALBANY AIRPORT Lat: -34.94 Lon: 117.82 Height: 68.4 m
Data from the previous 72 hours. | See also: Recent months at Albany Airport
Date/Time
WST
Temp

°C
Wind Pressure Rain
since 9am
mm
Weather Cloud Vis
km
Sea
Height
m
Swell
Dir
 
Speed
knots
Gust
knots
hPa Trend Height
m
Period
s
Dir
06/06:30am 14.9 ESE 4 5 1024.0 - 0.0 - Mostly clear 10 - - - -
06/06:00am 14.7 E 5 6 1023.8 F 0.0 Fine Mostly clear 25 - - - -
06/05:30am 14.0 ESE 5 5 1023.7 - 0.0 - Partly cloudy 10 - - - -
06/05:00am 14.5 ENE 3 4 1023.7 - 0.0 - Partly cloudy 10 - - - -
06/04:30am 15.5 E 5 6 1023.8 - 0.0 - Cloudy 10 - - - -
06/04:00am 15.1 ENE 4 5 1024.0 - 0.0 - Partly cloudy 10 - - - -
06/03:30am 15.7 NE 4 5 1024.0 - 0.0 - Cloudy 10 - - - -
06/03:00am 15.7 E 5 5 1024.2 - 0.0 - Mostly cloudy 10 - - - -
06/02:30am 16.2 ENE 5 5 1024.3 - 0.0 - Cloudy 10 - - - -
06/02:00am 16.1 ENE 5 6 1024.3 - 0.0 - Partly cloudy 10 - - - -
06/01:30am 15.7 ENE 5 7 1024.6 - 0.0 - Cloudy 10 - - - -
06/01:00am 15.2 ENE 6 8 1024.9 - 0.0 - Partly cloudy 10 - - - -
06/12:30am 14.7 E 6 7 1025.3 - 0.0 - - 10 - - - -
06/12:00am 14.6 ENE 7 7 1025.5 - 0.0 - - 10 - - - -
 
Date/Time
WST
Temp

°C
Wind Pressure Rain
since 9am
mm
Weather Cloud Vis
km
Sea
Height
m
Swell
Dir
 
Speed
knots
Gust
knots
hPa Trend Height
m
Period
s
Dir
05/11:30pm 14.7 E 6 6 1025.6 - 0.0 - - 10 - - - -
05/11:00pm 15.6 E 6 7 1025.7 - 0.0 - Partly cloudy 10 - - - -
05/10:30pm 15.7 E 7 9 1025.9 - 0.0 - - 10 - - - -
05/10:00pm 16.3 E 8 10 1025.9 - 0.0 - - 10 - - - -
05/09:30pm 16.4 E 8 10 1026.2 - 0.0 - - 10 - - - -
05/09:00pm 16.5 E 7 10 1026.2 - 0.0 - - 10 - - - -
05/08:30pm 17.0 E 7 10 1026.0 - 0.0 - - 10 - - - -
05/08:00pm 17.3 E 7 9 1025.7 - 0.0 - - 10 - - - -
05/07:30pm 17.9 E 10 12 1025.4 - 0.0 - - 10 - - - -
05/07:00pm 18.5 E 11 15 1025.2 - 0.0 - - 10 - - - -
05/06:30pm 19.1 E 11 15 1025.0 - 0.0 - - 10 - - - -
05/06:00pm 20.2 E 13 18 1025.0 - 0.0 - - 10 - - - -
05/05:30pm 21.0 ESE 16 20 1024.7 - 0.0 - - 10 - - - -
05/05:00pm 22.1 ESE 13 18 1024.6 - 0.0 - Mostly clear 10 - - - -
05/04:30pm 22.3 ESE 15 18 1024.4 - 0.0 - Mostly clear 10 - - - -
05/04:00pm 23.0 ESE 15 20 1024.3 - 0.0 - Mostly clear 10 - - - -
05/03:30pm 23.5 ESE 16 20 1024.4 - 0.0 - Mostly clear 10 - - - -
05/03:00pm 24.0 ESE 16 21 1024.6 F 0.0 Fine Mostly clear 30 - - - -
05/02:30pm 24.3 ESE 15 21 1024.9 - 0.0 - Mostly clear 10 - - - -
05/02:00pm 23.7 SE 15 20 1025.2 - 0.0 - Mostly clear 10 - - - -
05/01:30pm 24.8 E 13 19 1025.5 - 0.0 - Mostly clear 10 - - - -
05/01:00pm 24.6 ESE 9 15 1025.8 - 0.0 - Mostly clear 10 - - - -
05/12:30pm 24.6 ESE 9 14 1026.1 - 0.0 - Mostly clear 10 - - - -
05/12:00pm 23.5 E 9 15 1026.7 F 0.0 Fine Partly cloudy 30 - - - -
05/11:30am 23.8 ENE 11 15 1027.1 - 0.0 - Mostly clear 10 - - - -
05/11:00am 21.2 ENE 11 13 1027.7 - 0.0 - Mostly clear 10 - - - -
05/10:30am 21.3 ENE 9 13 1027.9 - 0.0 - Mostly clear 10 - - - -
05/10:00am 20.7 NE 10 14 1028.1 - 0.0 - Mostly clear 10 - - - -
05/09:30am 20.2 ENE 9 13 1028.0 - 0.0 - Mostly clear 10 - - - -
05/09:00am 19.8 ENE 10 13 1027.9 R 0.0 Showers Mostly cloudy 30 - - - -
05/08:30am 19.2 ENE 12 15 1027.9 - 0.0 - Mostly clear 10 - - - -
05/08:00am 19.0 E 9 13 1027.7 - 0.0 - Mostly clear 10 - - - -
05/07:30am 18.5 E 10 14 1027.6 - 0.0 - Mostly clear 10 - - - -
05/07:00am 18.0 ESE 9 12 1027.4 - 0.0 - Mostly clear 10 - - - -
05/06:30am 17.8 E 8 11 1027.3 - 0.0 - Mostly clear 10 - - - -
05/06:00am 17.9 E 9 12 1027.0 F 0.0 Fine Mostly cloudy 25 - - - -
05/05:30am 17.9 E 10 15 1026.8 - 0.0 - Cloudy 10 - - - -
05/05:00am 17.8 E 10 13 1026.7 - 0.0 - Cloudy 10 - - - -
05/04:30am 17.9 E 8 10 1026.5 - 0.0 - Cloudy 10 - - - -
05/04:00am 17.8 E 7 10 1026.5 - 0.0 - Cloudy 10 - - - -
05/03:30am 17.8 E 7 10 1026.4 - 0.0 - Cloudy 10 - - - -
05/03:00am 17.8 E 8 11 1026.4 - 0.0 - Cloudy 10 - - - -
05/02:30am 17.9 E 10 16 1026.5 - 0.0 - Cloudy 10 - - - -
05/02:00am 18.0 E 11 15 1026.5 - 0.0 - Cloudy 10 - - - -
05/01:30am 18.0 E 10 14 1026.7 - 0.0 - Cloudy 10 - - - -
05/01:00am 18.0 E 9 13 1026.9 - 0.0 - Cloudy 10 - - - -
05/12:30am 17.9 ENE 9 13 1027.1 - 0.0 - Cloudy 10 - - - -
05/12:00am 18.1 E 11 15 1027.2 - 0.0 - Cloudy 10 - - - -
 
Date/Time
WST
Temp

°C
Wind Pressure Rain
since 9am
mm
Weather Cloud Vis
km
Sea
Height
m
Swell
Dir
 
Speed
knots
Gust
knots
hPa Trend Height
m
Period
s
Dir
04/11:30pm 18.1 E 11 14 1027.2 - 0.0 - Cloudy 10 - - - -
04/11:00pm 18.1 E 11 14 1027.3 - 0.0 - Cloudy 10 - - - -
04/10:30pm 18.4 E 8 11 1027.5 - 0.0 - Cloudy 10 - - - -
04/10:00pm 18.4 E 9 13 1027.6 - 0.0 - Cloudy 10 - - - -
04/09:30pm 18.4 E 10 15 1027.8 - 0.0 - Cloudy 10 - - - -
04/09:00pm 18.5 E 11 15 1027.7 - 0.0 - Cloudy 10 - - - -
04/08:30pm 18.6 E 10 16 1027.4 - 0.0 - Cloudy 10 - - - -
04/08:00pm 18.5 E 8 11 1027.3 - 0.0 - Cloudy 10 - - - -
04/07:30pm 18.5 E 11 14 1026.8 - 0.0 - Cloudy 10 - - - -
04/07:00pm 18.6 ESE 12 16 1026.4 - 0.0 - Cloudy 10 - - - -
04/06:30pm 18.3 E 12 15 1026.1 - 0.0 - Partly cloudy 10 - - - -
04/06:00pm 19.3 ESE 11 16 1026.0 - 0.0 - Mostly clear 10 - - - -
04/05:30pm 19.5 ESE 13 18 1025.7 - 0.0 - - 10 - - - -
04/05:00pm 20.0 SE 14 19 1025.5 - 0.0 - - 10 - - - -
04/04:30pm 20.3 SE 14 19 1025.2 - 0.0 - - 10 - - - -
04/04:00pm 20.7 SE 15 19 1025.2 - 0.0 - Mostly clear 10 - - - -
04/03:30pm 20.6 SE 13 19 1025.1 - 0.0 - Mostly clear 10 - - - -
04/03:00pm 21.1 SE 15 19 1025.1 R 0.0 Fine Mostly clear 30 - - - -
04/02:30pm 21.5 SE 15 20 1024.9 - 0.0 - Mostly clear 10 - - - -
04/02:00pm 21.2 SE 13 16 1025.0 - 0.0 - Mostly clear 10 - - - -
04/01:30pm 21.5 SSE 11 15 1025.0 - 0.0 - Mostly clear 10 - - - -
04/01:00pm 21.3 SSE 11 16 1025.2 - 0.0 - Mostly clear 10 - - - -
04/12:30pm 21.4 SSE 9 11 1025.3 - 0.0 - Mostly clear 10 - - - -
04/12:00pm 21.5 SSE 8 14 1025.7 F 0.0 Fine Mostly clear 30 - - - -
04/11:30am 21.5 ESE 8 12 1025.9 - 0.0 - Mostly clear 10 - - - -
04/11:00am 21.2 SE 5 12 1026.2 - 0.0 - Mostly clear 10 - - - -
04/10:30am 20.2 SE 8 12 1026.8 - 0.0 - Mostly clear 10 - - - -
04/10:00am 19.6 SE 8 12 1027.0 - 0.0 - Partly cloudy 10 - - - -
04/09:30am 19.5 E 8 11 1027.1 - 0.0 - Mostly cloudy 10 - - - -
04/09:00am 18.3 E 4 6 1027.0 R 0.0 Fine Mostly cloudy 30 - - - -
04/08:30am 16.2 CALM 0 0 1026.8 - 0.0 - Mostly cloudy 10 - - - -
04/08:00am 14.6 NW 1 4 1026.5 - 0.0 - Mostly cloudy 10 - - - -
04/07:30am 12.7 CALM 0 0 1026.4 - 0.0 - Mostly cloudy 10 - - - -
04/07:00am 11.3 WNW 3 4 1026.1 - 0.0 - Mostly cloudy 10 - - - -
04/06:30am 10.5 W 5 5 1025.8 - 0.0 - Cloudy 10 - - - -
04/06:00am 9.8 W 4 5 1025.5 R 0.0 Fine Mostly cloudy 30 - - - -
04/05:30am 9.0 NW 3 3 1025.1 - 0.0 - Partly cloudy 10 - - - -
04/05:00am 7.5 N 4 5 1024.8 - 0.0 - - 10 - - - -
04/04:30am 7.9 N 4 5 1024.6 - 0.0 - - 10 - - - -
04/04:00am 8.6 SW 2 3 1024.4 - 0.0 - Partly cloudy 10 - - - -
04/03:30am 9.1 WSW 3 4 1024.2 - 0.0 - - 10 - - - -
04/03:00am 9.5 WNW 3 4 1023.9 - 0.0 - - 10 - - - -
04/02:30am 9.4 NNW 2 4 1023.9 - 0.0 - - 10 - - - -
04/02:00am 10.2 NW 3 4 1023.8 - 0.0 - Partly cloudy 10 - - - -
04/01:30am 10.6 CALM 0 0 1024.1 - 0.0 - Partly cloudy 10 - - - -
04/01:00am 10.3 N 1 3 1024.4 - 0.0 - Partly cloudy 10 - - - -
04/12:30am 10.5 N 3 3 1024.4 - 0.0 - - 10 - - - -
04/12:00am 10.4 N 3 4 1024.4 - 0.0 - - 10 - - - -
 
Date/Time
WST
Temp

°C
Wind Pressure Rain
since 9am
mm
Weather Cloud Vis
km
Sea
Height
m
Swell
Dir
 
Speed
knots
Gust
knots
hPa Trend Height
m
Period
s
Dir
03/11:30pm 10.9 ENE 3 4 1024.6 - 0.0 - - 10 - - - -
03/11:00pm 11.2 SSE 1 4 1024.6 - 0.0 - - 10 - - - -
03/10:30pm 11.4 CALM 0 0 1024.8 - 0.0 - - 10 - - - -
03/10:00pm 12.2 CALM 0 0 1024.9 - 0.0 - Partly cloudy 10 - - - -
03/09:30pm 13.1 CALM 0 0 1025.0 - 0.0 - - 10 - - - -
03/09:00pm 12.8 S 3 3 1024.9 - 0.0 - - 10 - - - -
03/08:30pm 13.2 SSE 4 5 1024.8 - 0.0 - - 10 - - - -
03/08:00pm 14.4 SE 3 4 1024.5 - 0.0 - - 10 - - - -
03/07:30pm 15.1 SE 5 5 1024.3 - 0.0 - - 10 - - - -
03/07:00pm 15.6 ESE 6 6 1024.0 - 0.0 - - 10 - - - -
03/06:30pm 17.1 ESE 8 10 1023.8 - 0.0 - - 10 - - - -
03/06:00pm 17.9 ESE 10 12 1023.6 - 0.0 - - 10 - - - -
03/05:30pm 18.6 SE 10 13 1023.4 - 0.0 - - 10 - - - -
03/05:00pm 19.2 ESE 10 14 1023.3 - 0.0 - Mostly clear 10 - - - -
03/04:30pm 18.8 SE 10 14 1023.2 - 0.0 - Mostly clear 10 - - - -
03/04:00pm 19.5 SSE 10 12 1023.1 - 0.0 - Mostly clear 10 - - - -
03/03:30pm 20.1 SSE 10 15 1023.2 - 0.0 - Mostly clear 10 - - - -
03/03:00pm 20.0 ESE 10 18 1023.2 R 0.0 Fine Partly cloudy 30 - - - -
03/02:30pm 20.7 SSE 11 15 1023.2 - 0.0 - Partly cloudy 10 - - - -
03/02:00pm 20.4 SSE 8 11 1023.3 - 0.0 - Partly cloudy 10 - - - -
03/01:30pm 21.1 SSE 7 14 1023.4 - 0.0 - Mostly cloudy 10 - - - -
03/01:00pm 20.3 S 7 11 1023.7 - 0.0 - Mostly cloudy 10 - - - -
03/12:30pm 19.8 SE 8 13 1023.9 - 0.0 - Cloudy 10 - - - -
03/12:00pm 19.6 SSE 7 10 1024.1 S 0.0 Fine Mostly cloudy 30 - - - -
03/11:30am 19.7 ESE 6 12 1024.2 - 0.0 - Cloudy 10 - - - -
03/11:00am 19.6 S 4 8 1024.6 - 0.0 - Mostly cloudy 10 - - - -
03/10:30am 19.1 SE 6 9 1024.7 - 0.0 - Mostly cloudy 10 - - - -
03/10:00am 19.0 ESE 6 9 1024.8 - 0.0 - Mostly cloudy 10 - - - -
03/09:30am 18.9 SE 6 10 1024.6 - 0.0 - Mostly cloudy 10 - - - -
03/09:00am 18.2 SE 6 9 1024.6 S 0.0 Fine Mostly cloudy 30 - - - -
03/08:30am 17.7 SE 6 9 1024.6 - 0.0 - Mostly cloudy 10 - - - -
03/08:00am 16.8 SE 5 7 1024.7 - 0.0 - Mostly cloudy 10 - - - -
03/07:30am 15.6 W 1 3 1024.6 - 0.0 - Mostly cloudy 10 - - - -
03/07:00am 14.9 CALM 0 0 1024.5 - 0.0 - Mostly cloudy 10 - - - -

Other Formats:

Comma delimited format used in spreadsheet applications
http://www.bom.gov.au/fwo/IDW60701/IDW60701.94802.axf

JavaScript Object Notation format (JSON) in row-major order
http://www.bom.gov.au/fwo/IDW60701/IDW60701.94802.json